Terminal Aerodrome Forecast
Issued by NWS

Home | Current Version | Previous Version | Text Only | Print | Product List | Glossary On
Versions: 1 2 3 4 5 6 7 8 9 10 11 12 13 14 15 16 17 18 19 20 21 22
000
FTUS45 KMSO 160747 AAA
TAFSMN
TAF AMD
KSMN 160747Z 1608/1706 VRB03KT P6SM SCT060 BKN120
      TEMPO 1608/1611 4SM -SN BR BKN030 OVC050
     FM161200 02005KT 2SM -SN BR OVC025
     FM161900 01005KT 6SM -SHSN BR SCT025 OVC050=

USA.gov is the U.S. government's official web portal to all federal, state and local government web resources and services.